createdAt,value
2023-05-20T00:00:04.151Z,87.61
2023-05-20T00:01:04.399Z,87.92
2023-05-20T00:02:04.656Z,87.71
2023-05-20T00:03:04.994Z,88.23
2023-05-20T00:04:05.500Z,88.02
2023-05-20T00:05:05.582Z,88.23
2023-05-20T00:06:05.809Z,88.33
2023-05-20T00:07:06.070Z,88.02
2023-05-20T00:08:06.362Z,87.82
2023-05-20T00:09:06.628Z,88.23
2023-05-20T00:10:06.904Z,87.82
2023-05-20T00:11:07.202Z,87.71
2023-05-20T00:12:07.477Z,87.65
2023-05-20T00:13:07.738Z,87.55
2023-05-20T00:14:08.016Z,88.26
2023-05-20T00:15:08.289Z,88.47
2023-05-20T00:16:08.632Z,88.68
2023-05-20T00:17:08.834Z,88.68
2023-05-20T00:18:09.168Z,87.76
2023-05-20T00:19:09.412Z,87.14
2023-05-20T00:20:09.730Z,86.73
2023-05-20T00:21:09.968Z,87.65
2023-05-20T00:22:10.225Z,87.65
2023-05-20T00:23:10.537Z,87.85
2023-05-20T00:24:10.771Z,88.17
2023-05-20T00:25:11.040Z,88.26
2023-05-20T00:26:11.290Z,88.88
2023-05-20T00:27:11.569Z,88.78
2023-05-20T00:28:11.864Z,88.88
2023-05-20T00:29:12.123Z,88.68
2023-05-20T00:30:12.415Z,88.78
2023-05-20T00:31:12.651Z,89.18
2023-05-20T00:32:12.904Z,89.09
2023-05-20T00:33:13.386Z,89.50
2023-05-20T00:34:13.398Z,89.59
2023-05-20T00:35:13.659Z,89.43
2023-05-20T00:36:13.958Z,89.12
2023-05-20T00:37:14.217Z,88.92
2023-05-20T00:38:14.549Z,88.82
2023-05-20T00:39:14.802Z,88.71
2023-05-20T00:40:15.754Z,89.43
2023-05-20T00:41:15.378Z,89.74
2023-05-20T00:42:15.639Z,89.94
2023-05-20T00:43:15.941Z,89.74
2023-05-20T00:44:16.193Z,89.94
2023-05-20T00:45:16.452Z,89.74
2023-05-20T00:46:16.814Z,90.45
2023-05-20T00:47:17.039Z,90.56
2023-05-20T00:48:17.322Z,90.56
2023-05-20T00:49:17.577Z,90.45
2023-05-20T00:50:17.848Z,90.19
2023-05-20T00:51:18.158Z,90.39
2023-05-20T00:52:18.380Z,90.39
2023-05-20T00:53:18.685Z,90.39
2023-05-20T00:54:18.900Z,90.09
2023-05-20T00:55:19.176Z,89.37
2023-05-20T00:56:19.455Z,89.89
2023-05-20T00:57:19.718Z,90.30
2023-05-20T00:58:19.993Z,90.30
2023-05-20T00:59:20.257Z,90.30
2023-05-20T01:00:20.545Z,90.60
2023-05-20T01:01:20.832Z,90.60
2023-05-20T01:02:21.116Z,90.64
2023-05-20T01:03:21.491Z,90.34
2023-05-20T01:04:21.675Z,90.44
2023-05-20T01:05:21.947Z,90.95
2023-05-20T01:06:22.198Z,91.05
2023-05-20T01:07:22.458Z,91.16
2023-05-20T01:08:22.755Z,91.36
2023-05-20T01:09:23.001Z,91.26
2023-05-20T01:10:23.254Z,91.16
2023-05-20T01:11:23.524Z,90.75
2023-05-20T01:12:23.796Z,90.54
2023-05-20T01:13:24.115Z,90.13
2023-05-20T01:14:24.368Z,90.03
2023-05-20T01:15:24.653Z,90.23
2023-05-20T01:16:25.055Z,90.54
2023-05-20T01:17:25.272Z,90.64
2023-05-20T01:18:25.575Z,90.54
2023-05-20T01:19:25.813Z,90.58
2023-05-20T01:20:26.072Z,90.79
2023-05-20T01:21:33.382Z,90.89
2023-05-20T01:22:26.600Z,90.99
2023-05-20T01:23:26.917Z,91.09
2023-05-20T01:24:27.171Z,91.50
2023-05-20T01:25:27.462Z,91.82
2023-05-20T01:26:27.712Z,91.71
2023-05-20T01:27:27.987Z,91.50
2023-05-20T01:28:28.235Z,91.61
2023-05-20T01:29:28.476Z,91.71
2023-05-20T01:30:28.727Z,91.61
2023-05-20T01:31:29.026Z,91.09
2023-05-20T01:32:29.277Z,91.03
2023-05-20T01:33:29.563Z,91.14
2023-05-20T01:34:29.798Z,91.24
2023-05-20T01:35:30.031Z,92.06
2023-05-20T01:36:30.306Z,92.27
2023-05-20T01:37:30.569Z,92.47
2023-05-20T01:38:30.854Z,92.57
2023-05-20T01:39:31.133Z,92.78
2023-05-20T01:40:31.396Z,92.88
2023-05-20T01:41:31.663Z,92.68
2023-05-20T01:42:31.934Z,93.08
2023-05-20T01:43:32.233Z,93.19
2023-05-20T01:44:32.458Z,93.29
2023-05-20T01:45:32.948Z,93.08
2023-05-20T01:46:33.068Z,92.88
2023-05-20T01:47:33.455Z,92.88
2023-05-20T01:48:33.628Z,93.29
2023-05-20T01:49:33.922Z,93.29
2023-05-20T01:50:34.193Z,93.39
2023-05-20T01:51:34.437Z,93.39
2023-05-20T01:52:34.711Z,93.60
2023-05-20T01:53:34.994Z,93.39
2023-05-20T01:54:35.253Z,93.08
2023-05-20T01:55:35.787Z,92.98
2023-05-20T01:56:35.799Z,92.98
2023-05-20T01:57:36.084Z,92.78
2023-05-20T01:58:36.370Z,92.68
2023-05-20T01:59:36.628Z,92.68
2023-05-20T02:00:36.955Z,92.47
2023-05-20T02:01:37.170Z,92.47
2023-05-20T02:02:37.546Z,91.86
2023-05-20T02:03:37.786Z,91.08
2023-05-20T02:04:38.078Z,91.28
2023-05-20T02:05:38.683Z,91.38
2023-05-20T02:06:38.567Z,91.38
2023-05-20T02:07:38.841Z,91.49
2023-05-20T02:08:39.117Z,91.59
2023-05-20T02:09:39.369Z,91.69
2023-05-20T02:10:39.606Z,92.10
2023-05-20T02:11:39.873Z,92.31
2023-05-20T02:12:40.120Z,92.51
2023-05-20T02:13:40.364Z,92.66
2023-05-20T02:14:40.601Z,92.76
2023-05-20T02:15:40.911Z,92.66
2023-05-20T02:16:41.263Z,93.07
2023-05-20T02:17:41.502Z,93.89
2023-05-20T02:18:41.799Z,93.79
2023-05-20T02:19:42.049Z,93.89
2023-05-20T02:20:42.331Z,93.79
2023-05-20T02:21:42.568Z,93.59
2023-05-20T02:22:42.831Z,93.38
2023-05-20T02:23:43.087Z,93.07
2023-05-20T02:24:43.352Z,92.97
2023-05-20T02:25:43.612Z,93.07
2023-05-20T02:26:43.865Z,93.38
2023-05-20T02:27:44.106Z,93.68
2023-05-20T02:28:44.388Z,93.79
2023-05-20T02:29:44.669Z,93.79
2023-05-20T02:30:44.919Z,93.68
2023-05-20T02:31:45.185Z,93.68
2023-05-20T02:32:45.481Z,93.89
2023-05-20T02:33:45.802Z,94.10
2023-05-20T02:34:45.994Z,94.10
2023-05-20T02:35:46.238Z,93.89
2023-05-20T02:36:46.515Z,93.89
2023-05-20T02:37:46.771Z,94.10
2023-05-20T02:38:46.989Z,94.71
2023-05-20T02:39:47.240Z,94.92
2023-05-20T02:40:47.519Z,94.92
2023-05-20T02:41:47.809Z,94.81
2023-05-20T02:42:48.113Z,94.51
2023-05-20T02:43:48.357Z,94.40
2023-05-20T02:44:48.630Z,94.04
2023-05-20T02:45:48.897Z,93.89
2023-05-20T02:46:49.199Z,93.42
2023-05-20T02:47:49.472Z,93.32
2023-05-20T02:48:49.733Z,93.42
2023-05-20T02:49:50.002Z,93.73
2023-05-20T02:50:50.250Z,94.14
2023-05-20T02:51:50.517Z,94.24
2023-05-20T02:52:50.839Z,94.55
2023-05-20T02:53:51.153Z,94.76
2023-05-20T02:54:51.423Z,95.06
2023-05-20T02:55:51.701Z,95.17
2023-05-20T02:56:51.942Z,95.27
2023-05-20T02:57:52.217Z,95.37
2023-05-20T02:58:52.548Z,95.27
2023-05-20T02:59:52.760Z,95.17
2023-05-20T03:00:53.001Z,95.06
2023-05-20T03:01:53.279Z,94.85
2023-05-20T03:02:53.643Z,94.65
2023-05-20T03:03:53.945Z,94.85
2023-05-20T03:04:54.244Z,94.96
2023-05-20T03:05:54.476Z,94.76
2023-05-20T03:06:54.711Z,94.55
2023-05-20T03:07:54.944Z,93.93
2023-05-20T03:08:55.195Z,94.45
2023-05-20T03:09:55.478Z,95.37
2023-05-20T03:10:55.749Z,95.47
2023-05-20T03:11:56.033Z,95.17
2023-05-20T03:12:56.316Z,94.14
2023-05-20T03:13:56.637Z,93.42
2023-05-20T03:14:56.913Z,93.32
2023-05-20T03:15:57.209Z,93.63
2023-05-20T03:16:57.455Z,93.73
2023-05-20T03:17:57.750Z,93.73
2023-05-20T03:18:58.117Z,93.93
2023-05-20T03:19:58.326Z,94.08
2023-05-20T03:20:58.622Z,94.18
2023-05-20T03:21:58.884Z,94.39
2023-05-20T03:22:59.137Z,94.70
2023-05-20T03:23:59.391Z,95.01
2023-05-20T03:24:59.671Z,95.10
2023-05-20T03:25:59.937Z,95.10
2023-05-20T03:27:00.225Z,95.10
2023-05-20T03:28:00.518Z,95.42
2023-05-20T03:29:00.791Z,95.42
2023-05-20T03:30:01.052Z,95.31
2023-05-20T03:31:01.390Z,95.01
2023-05-20T03:32:01.658Z,95.10
2023-05-20T03:33:01.984Z,95.10
2023-05-20T03:34:02.274Z,95.21
2023-05-20T03:35:02.559Z,95.31
2023-05-20T03:36:02.856Z,95.52
2023-05-20T03:37:03.104Z,95.72
2023-05-20T03:38:03.401Z,95.83
2023-05-20T03:39:03.709Z,95.83
2023-05-20T03:40:04.011Z,95.83
2023-05-20T03:41:04.296Z,95.93
2023-05-20T03:42:04.565Z,95.93
2023-05-20T03:43:04.821Z,95.93
2023-05-20T03:44:05.156Z,96.03
2023-05-20T03:45:05.474Z,96.23
2023-05-20T03:46:05.818Z,96.23
2023-05-20T03:47:06.197Z,96.23
2023-05-20T03:48:06.502Z,96.03
2023-05-20T03:49:06.763Z,96.03
2023-05-20T03:50:07.036Z,95.93
2023-05-20T03:51:07.384Z,96.03
2023-05-20T03:52:07.622Z,96.09
2023-05-20T03:53:07.891Z,95.98
2023-05-20T03:54:08.177Z,95.89
2023-05-20T03:55:08.470Z,95.72
2023-05-20T03:56:08.776Z,95.62
2023-05-20T03:57:09.081Z,95.52
2023-05-20T03:58:09.413Z,95.42
2023-05-20T03:59:09.717Z,95.57
2023-05-20T04:00:10.034Z,95.89
2023-05-20T04:01:10.332Z,96.09
2023-05-20T04:02:10.703Z,96.19
2023-05-20T04:03:11.096Z,95.98
2023-05-20T04:04:11.254Z,95.78
2023-05-20T04:05:11.496Z,95.68
2023-05-20T04:06:11.773Z,95.57
2023-05-20T04:07:12.081Z,95.53
2023-05-20T04:08:12.354Z,95.43
2023-05-20T04:09:12.682Z,95.02
2023-05-20T04:10:13.023Z,94.10
2023-05-20T04:11:13.316Z,93.68
2023-05-20T04:12:13.603Z,93.79
2023-05-20T04:13:13.897Z,93.79
2023-05-20T04:14:14.208Z,93.64
2023-05-20T04:15:14.546Z,93.64
2023-05-20T04:16:14.917Z,93.74
2023-05-20T04:17:15.067Z,94.05
2023-05-20T04:18:15.507Z,94.05
2023-05-20T04:19:15.683Z,93.44
2023-05-20T04:20:15.921Z,93.13
2023-05-20T04:21:16.227Z,92.82
2023-05-20T04:22:16.525Z,92.72
2023-05-20T04:23:16.893Z,92.93
2023-05-20T04:24:17.150Z,92.98
2023-05-20T04:25:17.470Z,92.88
2023-05-20T04:26:17.795Z,92.68
2023-05-20T04:27:18.132Z,92.36
2023-05-20T04:28:18.451Z,92.27
2023-05-20T04:29:18.782Z,92.57
2023-05-20T04:30:19.096Z,92.43
2023-05-20T04:31:19.425Z,91.61
2023-05-20T04:32:19.693Z,91.40
2023-05-20T04:33:20.062Z,91.30
2023-05-20T04:34:20.374Z,91.09
2023-05-20T04:35:20.563Z,90.99
2023-05-20T04:36:20.843Z,90.99
2023-05-20T04:37:21.146Z,90.99
2023-05-20T04:38:21.488Z,90.95
2023-05-20T04:39:21.807Z,90.95
2023-05-20T04:40:22.140Z,90.95
2023-05-20T04:41:22.492Z,90.84
2023-05-20T04:42:22.766Z,91.01
2023-05-20T04:43:23.077Z,90.81
2023-05-20T04:44:23.411Z,90.50
2023-05-20T04:45:23.710Z,90.09
2023-05-20T04:46:24.054Z,89.64
2023-05-20T04:47:24.359Z,89.43
2023-05-20T04:48:24.677Z,88.98
2023-05-20T04:49:24.996Z,88.68
2023-05-20T04:50:25.287Z,88.47
2023-05-20T04:51:25.603Z,88.33
2023-05-20T04:52:25.900Z,88.02
2023-05-20T04:53:26.206Z,87.88
2023-05-20T04:54:26.517Z,87.47
2023-05-20T04:55:26.811Z,86.91
2023-05-20T04:56:27.123Z,87.23
2023-05-20T04:57:27.447Z,87.23
2023-05-20T04:58:27.786Z,86.98
2023-05-20T04:59:28.138Z,85.96
2023-05-20T05:00:28.328Z,85.65
2023-05-20T05:01:28.650Z,84.69
2023-05-20T05:02:28.985Z,84.39
2023-05-20T05:03:29.280Z,84.49
2023-05-20T05:04:29.594Z,84.55
2023-05-20T05:05:29.790Z,84.75
2023-05-20T05:06:30.133Z,84.55
2023-05-20T05:07:30.451Z,84.11
2023-05-20T05:08:30.766Z,83.59
2023-05-20T05:09:32.195Z,84.00
2023-05-20T05:10:31.413Z,83.56
2023-05-20T05:11:31.726Z,83.15
2023-05-20T05:12:32.006Z,82.43
2023-05-20T05:13:32.320Z,82.50
2023-05-20T05:14:32.657Z,82.29
2023-05-20T05:15:33.243Z,81.85
2023-05-20T05:16:33.525Z,81.74
2023-05-20T05:17:33.651Z,81.85
2023-05-20T05:18:33.937Z,81.81
2023-05-20T05:19:34.273Z,81.91
2023-05-20T05:20:34.600Z,82.01
2023-05-20T05:21:34.936Z,81.20
2023-05-20T05:22:35.244Z,80.90
2023-05-20T05:23:35.549Z,80.76
2023-05-20T05:24:35.887Z,80.04
2023-05-20T05:25:36.288Z,79.43
2023-05-20T05:26:36.534Z,79.53
2023-05-20T05:27:36.834Z,79.74
2023-05-20T05:28:37.146Z,79.19
2023-05-20T05:29:37.433Z,78.89
2023-05-20T05:30:37.718Z,78.58
2023-05-20T05:31:38.015Z,78.68
2023-05-20T05:32:38.383Z,78.34
2023-05-20T05:33:38.779Z,78.24
2023-05-20T05:34:38.902Z,78.00
2023-05-20T05:35:39.195Z,77.45
2023-05-20T05:36:39.490Z,76.75
2023-05-20T05:37:39.811Z,76.44
2023-05-20T05:38:40.098Z,76.64
2023-05-20T05:39:40.431Z,76.20
2023-05-20T05:40:40.762Z,76.00
2023-05-20T05:41:41.068Z,76.20
2023-05-20T05:42:41.393Z,76.27
2023-05-20T05:43:41.650Z,76.17
2023-05-20T05:44:41.994Z,75.66
2023-05-20T05:45:42.321Z,74.95
2023-05-20T05:46:42.717Z,74.61
2023-05-20T05:47:43.055Z,74.61
2023-05-20T05:48:43.400Z,74.71
2023-05-20T05:49:43.665Z,74.61
2023-05-20T05:50:43.933Z,74.61
2023-05-20T05:51:44.247Z,74.91
2023-05-20T05:52:44.528Z,74.77
2023-05-20T05:53:44.822Z,74.68
2023-05-20T05:54:45.148Z,74.17
2023-05-20T05:55:45.457Z,74.17
2023-05-20T05:56:45.776Z,74.27
2023-05-20T05:57:46.161Z,74.33
2023-05-20T05:58:46.437Z,73.83
2023-05-20T05:59:46.717Z,73.32
2023-05-20T06:00:47.093Z,73.09
2023-05-20T06:01:47.374Z,73.29
2023-05-20T06:02:47.860Z,72.95
2023-05-20T06:03:48.054Z,72.14
2023-05-20T06:04:48.224Z,71.84
2023-05-20T06:05:48.522Z,72.24
2023-05-20T06:06:48.848Z,72.75
2023-05-20T06:07:49.168Z,71.70
2023-05-20T06:08:49.458Z,71.80
2023-05-20T06:09:49.816Z,71.33
2023-05-20T06:10:50.039Z,69.48
2023-05-20T06:11:50.223Z,66.47
2023-05-20T06:12:50.562Z,65.50
2023-05-20T06:13:50.886Z,62.45
2023-05-20T06:14:51.248Z,63.68
2023-05-20T06:15:51.566Z,64.25
2023-05-20T06:16:51.897Z,64.15
2023-05-20T06:17:52.231Z,64.95
2023-05-20T06:18:52.446Z,64.55
2023-05-20T06:19:52.746Z,65.29
2023-05-20T06:20:53.037Z,64.92
2023-05-20T06:21:53.371Z,65.85
2023-05-20T06:22:53.738Z,66.25
2023-05-20T06:23:53.999Z,66.02
2023-05-20T06:24:54.306Z,65.62
2023-05-20T06:25:54.607Z,65.92
2023-05-20T06:26:54.906Z,65.42
2023-05-20T06:27:55.264Z,65.65
2023-05-20T06:28:55.528Z,65.95
2023-05-20T06:29:55.843Z,65.52
2023-05-20T06:30:56.248Z,65.72
2023-05-20T06:31:56.407Z,65.72
2023-05-20T06:32:56.730Z,65.52
2023-05-20T06:33:57.010Z,66.02
2023-05-20T06:34:57.316Z,66.22
2023-05-20T06:35:57.605Z,66.22
2023-05-20T06:36:57.897Z,65.92
2023-05-20T06:37:58.298Z,65.55
2023-05-20T06:38:58.538Z,66.39
2023-05-20T06:39:58.831Z,66.66
2023-05-20T06:40:59.200Z,66.96
2023-05-20T06:41:59.497Z,65.65
2023-05-20T06:42:59.845Z,65.35
2023-05-20T06:44:00.159Z,65.75
2023-05-20T06:45:00.533Z,66.13
2023-05-20T06:46:00.825Z,66.29
2023-05-20T06:47:01.069Z,67.07
2023-05-20T06:48:01.460Z,67.27
2023-05-20T06:49:01.713Z,66.83
2023-05-20T06:50:02.225Z,65.82
2023-05-20T06:51:02.309Z,66.02
2023-05-20T06:52:02.649Z,66.13
2023-05-20T06:53:02.963Z,66.09
2023-05-20T06:54:03.285Z,65.29
2023-05-20T06:55:03.583Z,64.89
2023-05-20T06:56:03.926Z,65.36
2023-05-20T06:57:04.192Z,65.36
2023-05-20T06:58:04.516Z,66.13
2023-05-20T06:59:04.853Z,65.12
2023-05-20T07:00:05.141Z,64.49
2023-05-20T07:01:05.494Z,63.68
2023-05-20T07:02:05.922Z,63.73
2023-05-20T07:03:05.967Z,63.19
2023-05-20T07:04:06.263Z,61.29
2023-05-20T07:05:06.576Z,61.25
2023-05-20T07:06:06.805Z,61.02
2023-05-20T07:07:07.124Z,59.12
2023-05-20T07:08:07.438Z,59.12
2023-05-20T07:09:07.830Z,57.93
2023-05-20T07:10:08.103Z,56.87
2023-05-20T07:11:08.487Z,56.12
2023-05-20T07:12:08.643Z,55.69
2023-05-20T07:13:08.975Z,55.62
2023-05-20T07:14:16.458Z,55.89
2023-05-20T07:15:10.195Z,54.99
2023-05-20T07:16:10.085Z,54.90
2023-05-20T07:17:10.216Z,54.90
2023-05-20T07:18:10.646Z,55.22
2023-05-20T07:19:10.736Z,55.22
2023-05-20T07:20:10.956Z,55.85
2023-05-20T07:21:11.215Z,56.15
2023-05-20T07:22:11.526Z,56.10
2023-05-20T07:23:12.396Z,57.53
2023-05-20T07:24:11.979Z,57.90
2023-05-20T07:25:12.354Z,56.98
2023-05-20T07:26:12.530Z,53.81
2023-05-20T07:27:12.864Z,52.59
2023-05-20T07:28:13.213Z,53.64
2023-05-20T07:29:13.500Z,53.59
2023-05-20T07:30:13.869Z,54.12
2023-05-20T07:31:14.134Z,54.82
2023-05-20T07:32:14.283Z,55.15
2023-05-20T07:33:14.630Z,56.05
2023-05-20T07:34:14.985Z,56.15
2023-05-20T07:35:15.227Z,56.22
2023-05-20T07:36:15.517Z,56.02
2023-05-20T07:37:15.872Z,55.92
2023-05-20T07:38:16.238Z,55.74
2023-05-20T07:39:16.580Z,55.94
2023-05-20T07:40:16.890Z,56.17
2023-05-20T07:41:17.231Z,56.87
2023-05-20T07:42:17.586Z,57.28
2023-05-20T07:43:17.878Z,57.17
2023-05-20T07:44:18.176Z,57.43
2023-05-20T07:45:18.519Z,58.29
2023-05-20T07:46:20.221Z,60.02
2023-05-20T07:47:19.182Z,59.62
2023-05-20T07:48:19.509Z,59.72
2023-05-20T07:49:19.834Z,59.69
2023-05-20T07:50:20.158Z,58.99
2023-05-20T07:51:20.530Z,59.01
2023-05-20T07:52:20.817Z,59.52
2023-05-20T07:53:21.151Z,60.52
2023-05-20T07:54:21.441Z,60.93
2023-05-20T07:55:21.796Z,60.32
2023-05-20T07:56:22.155Z,61.05
2023-05-20T07:57:22.442Z,61.15
2023-05-20T07:58:22.817Z,61.49
2023-05-20T07:59:23.104Z,61.86
2023-05-20T08:00:23.463Z,62.36
2023-05-20T08:01:23.835Z,61.33
2023-05-20T08:02:24.109Z,61.02
2023-05-20T08:03:24.385Z,61.19
2023-05-20T08:04:24.789Z,60.80
2023-05-20T08:05:24.885Z,59.66
2023-05-20T08:06:26.736Z,59.53
2023-05-20T08:07:25.368Z,59.20
2023-05-20T08:08:25.807Z,59.48
2023-05-20T08:09:26.023Z,58.58
2023-05-20T08:10:26.379Z,58.91
2023-05-20T08:11:26.551Z,58.73
2023-05-20T08:12:27.084Z,59.20
2023-05-20T08:13:27.224Z,58.98
2023-05-20T08:14:27.549Z,58.35
2023-05-20T08:15:27.851Z,57.87
2023-05-20T08:16:28.193Z,58.18
2023-05-20T08:17:28.460Z,58.45
2023-05-20T08:18:28.741Z,57.22
2023-05-20T08:19:29.068Z,56.20
2023-05-20T08:20:29.330Z,56.59
2023-05-20T08:21:29.545Z,55.99
2023-05-20T08:22:29.783Z,56.22
2023-05-20T08:23:30.131Z,56.62
2023-05-20T08:24:30.334Z,56.99
2023-05-20T08:25:30.657Z,56.09
2023-05-20T08:26:30.989Z,56.09
2023-05-20T08:27:31.325Z,56.14
2023-05-20T08:28:31.639Z,55.21
2023-05-20T08:29:31.952Z,54.61
2023-05-20T08:30:32.362Z,54.99
2023-05-20T08:31:32.748Z,54.59
2023-05-20T08:32:33.067Z,54.09
2023-05-20T08:33:33.260Z,54.49
2023-05-20T08:34:33.683Z,54.57
2023-05-20T08:35:34.107Z,54.34
2023-05-20T08:36:34.166Z,53.81
2023-05-20T08:37:34.405Z,52.92
2023-05-20T08:38:34.619Z,52.62
2023-05-20T08:39:34.836Z,53.17
2023-05-20T08:40:35.074Z,54.06
2023-05-20T08:41:35.300Z,54.09
2023-05-20T08:42:35.683Z,55.87
2023-05-20T08:43:35.971Z,57.19
2023-05-20T08:44:36.319Z,56.46
2023-05-20T08:45:36.718Z,55.57
2023-05-20T08:46:36.877Z,55.89
2023-05-20T08:47:44.166Z,55.36
2023-05-20T08:48:37.309Z,56.92
2023-05-20T08:49:37.546Z,57.09
2023-05-20T08:50:37.755Z,56.44
2023-05-20T08:51:38.100Z,55.81
2023-05-20T08:52:38.427Z,54.99
2023-05-20T08:53:38.812Z,55.62
2023-05-20T08:54:38.982Z,55.44
2023-05-20T08:55:39.343Z,54.91
2023-05-20T08:56:39.537Z,54.59
2023-05-20T08:57:39.862Z,54.57
2023-05-20T08:58:40.226Z,53.74
2023-05-20T08:59:40.437Z,53.74
2023-05-20T09:00:40.740Z,53.31
2023-05-20T09:01:41.120Z,52.79
2023-05-20T09:02:41.382Z,52.37
2023-05-20T09:03:41.596Z,52.27
2023-05-20T09:04:41.900Z,51.84
2023-05-20T09:05:42.057Z,52.19
2023-05-20T09:06:42.413Z,52.72
2023-05-20T09:07:42.625Z,53.74
2023-05-20T09:08:42.971Z,53.34
2023-05-20T09:09:43.184Z,53.36
2023-05-20T09:10:43.549Z,54.39
2023-05-20T09:11:43.844Z,54.59
2023-05-20T09:12:44.193Z,54.29
2023-05-20T09:13:44.534Z,54.64
2023-05-20T09:14:44.853Z,55.47
2023-05-20T09:15:45.208Z,56.20
2023-05-20T09:16:45.448Z,56.92
2023-05-20T09:17:45.764Z,56.89
2023-05-20T09:18:46.015Z,56.32
2023-05-20T09:19:46.211Z,57.65
2023-05-20T09:20:46.536Z,57.75
2023-05-20T09:21:46.757Z,57.72
2023-05-20T09:22:47.083Z,57.12
2023-05-20T09:23:47.418Z,58.22
2023-05-20T09:24:47.769Z,58.12
2023-05-20T09:25:47.936Z,58.12
2023-05-20T09:26:48.268Z,57.55
2023-05-20T09:27:48.489Z,58.15
2023-05-20T09:28:48.791Z,59.38
2023-05-20T09:29:49.124Z,59.38
2023-05-20T09:30:49.421Z,58.72
2023-05-20T09:31:49.947Z,58.72
2023-05-20T09:32:50.134Z,58.00
2023-05-20T09:33:50.383Z,56.99
2023-05-20T09:34:50.715Z,57.37
2023-05-20T09:35:51.042Z,56.74
2023-05-20T09:36:51.381Z,56.71
2023-05-20T09:37:51.609Z,55.87
2023-05-20T09:38:51.864Z,57.07
2023-05-20T09:39:52.078Z,58.49
2023-05-20T09:40:52.378Z,58.17
2023-05-20T09:41:52.662Z,58.24
2023-05-20T09:42:52.981Z,57.11
2023-05-20T09:43:53.348Z,57.34
2023-05-20T09:44:53.477Z,56.77
2023-05-20T09:45:53.858Z,57.92
2023-05-20T09:46:54.099Z,58.32
2023-05-20T09:47:54.509Z,57.22
2023-05-20T09:48:54.764Z,57.39
2023-05-20T09:49:55.054Z,57.29
2023-05-20T09:50:55.343Z,58.35
2023-05-20T09:51:55.639Z,58.45
2023-05-20T09:52:55.971Z,58.98
2023-05-20T09:53:56.326Z,59.15
2023-05-20T09:54:56.567Z,59.05
2023-05-20T09:55:56.860Z,59.55
2023-05-20T09:56:57.157Z,59.12
2023-05-20T09:57:57.466Z,59.02
2023-05-20T09:58:57.814Z,58.52
2023-05-20T09:59:58.124Z,58.65
2023-05-20T10:00:59.342Z,58.15
2023-05-20T10:01:58.726Z,58.12
2023-05-20T10:04:12.707Z,57.57
2023-05-20T10:05:15.631Z,57.19
2023-05-20T10:06:13.222Z,57.92
2023-05-20T10:07:13.540Z,58.00
2023-05-20T10:08:13.876Z,57.50
2023-05-20T10:09:14.195Z,56.79
2023-05-20T10:10:14.532Z,57.02
2023-05-20T10:11:14.823Z,57.45
2023-05-20T10:12:15.125Z,57.37
2023-05-20T10:13:15.462Z,58.58
2023-05-20T10:14:15.783Z,58.70
2023-05-20T10:15:16.119Z,58.91
2023-05-20T10:16:16.337Z,59.61
2023-05-20T10:17:16.699Z,59.08
2023-05-20T10:18:16.856Z,59.28
2023-05-20T10:19:17.214Z,59.88
2023-05-20T10:20:17.508Z,60.18
2023-05-20T10:21:17.804Z,59.78
2023-05-20T10:22:18.122Z,60.28
2023-05-20T10:23:18.416Z,60.38
2023-05-20T10:24:18.735Z,59.35
2023-05-20T10:25:19.061Z,59.22
2023-05-20T10:26:19.347Z,59.22
2023-05-20T10:27:19.657Z,59.25
2023-05-20T10:28:19.944Z,59.78
2023-05-20T10:29:27.274Z,60.33
2023-05-20T10:30:20.470Z,61.21
2023-05-20T10:31:20.752Z,60.51
2023-05-20T10:32:21.105Z,61.51
2023-05-20T10:33:21.356Z,61.11
2023-05-20T10:34:21.629Z,60.35
2023-05-20T10:35:21.965Z,60.25
2023-05-20T10:36:22.275Z,59.35
2023-05-20T10:37:22.565Z,58.15
2023-05-20T10:38:22.866Z,59.35
2023-05-20T10:39:23.207Z,58.85
2023-05-20T10:40:23.422Z,59.55
2023-05-20T10:41:23.755Z,59.32
2023-05-20T10:42:24.041Z,58.45
2023-05-20T10:43:24.353Z,59.70
2023-05-20T10:44:24.697Z,60.14
2023-05-20T10:45:25.015Z,61.24
2023-05-20T10:46:34.994Z,60.88
2023-05-20T10:47:26.865Z,60.28
2023-05-20T10:48:26.273Z,59.85
2023-05-20T10:49:27.728Z,59.55
2023-05-20T10:50:26.452Z,59.25
2023-05-20T10:51:26.781Z,58.12
2023-05-20T10:52:27.080Z,58.12
2023-05-20T10:53:33.906Z,58.55
2023-05-20T10:54:28.697Z,59.58
2023-05-20T10:55:27.887Z,59.55
2023-05-20T10:56:28.171Z,59.38
2023-05-20T10:57:28.483Z,59.65
2023-05-20T10:58:28.815Z,59.35
2023-05-20T10:59:29.101Z,60.15
2023-05-20T11:00:29.406Z,59.22
2023-05-20T11:01:29.878Z,58.22
2023-05-20T11:02:29.981Z,57.89
2023-05-20T11:03:37.417Z,58.59
2023-05-20T11:04:30.522Z,59.22
2023-05-20T11:05:30.836Z,58.49
2023-05-20T11:06:31.133Z,57.37
2023-05-20T11:07:31.439Z,58.52
2023-05-20T11:08:31.748Z,59.42
2023-05-20T11:09:32.047Z,59.22
2023-05-20T11:10:32.486Z,58.52
2023-05-20T11:11:32.609Z,58.12
2023-05-20T11:12:33.055Z,57.82
2023-05-20T11:13:33.266Z,57.59
2023-05-20T11:14:33.565Z,57.50
2023-05-20T11:15:33.881Z,58.92
2023-05-20T11:16:34.273Z,59.72
2023-05-20T11:17:34.601Z,59.32
2023-05-20T11:18:34.880Z,59.22
2023-05-20T11:19:35.230Z,59.15
2023-05-20T11:20:35.630Z,59.82
2023-05-20T11:21:35.736Z,59.12
2023-05-20T11:22:36.028Z,60.12
2023-05-20T11:23:37.553Z,59.42
2023-05-20T11:24:36.613Z,59.22
2023-05-20T11:25:36.902Z,59.85
2023-05-20T11:26:37.181Z,59.95
2023-05-20T11:29:58.465Z,60.75
2023-05-20T11:30:58.787Z,59.65
2023-05-20T11:31:59.019Z,60.45
2023-05-20T11:32:59.253Z,60.18
2023-05-20T11:33:59.543Z,60.58
2023-05-20T11:34:59.841Z,60.68
2023-05-20T11:36:00.134Z,60.78
2023-05-20T11:37:00.456Z,60.51
2023-05-20T11:38:00.779Z,61.11
2023-05-20T11:39:01.101Z,60.91
2023-05-20T11:40:01.428Z,60.91
2023-05-20T11:41:01.732Z,60.81
2023-05-20T11:42:02.037Z,60.68
2023-05-20T11:43:02.339Z,60.58
2023-05-20T11:44:02.664Z,59.95
2023-05-20T11:45:02.982Z,60.48
2023-05-20T11:46:03.437Z,60.68
2023-05-20T11:47:03.789Z,60.31
2023-05-20T11:48:03.963Z,60.51
2023-05-20T11:49:04.123Z,60.45
2023-05-20T11:50:04.472Z,60.32
2023-05-20T11:51:04.696Z,59.22
2023-05-20T11:52:05.013Z,60.52
2023-05-20T11:53:05.307Z,60.02
2023-05-20T11:54:05.662Z,60.42
2023-05-20T11:55:05.965Z,59.39
2023-05-20T11:56:06.299Z,59.30
2023-05-20T11:57:07.288Z,58.86
2023-05-20T11:58:06.914Z,59.14
2023-05-20T11:59:07.244Z,58.80
2023-05-20T12:00:07.553Z,59.09
2023-05-20T12:01:21.009Z,58.69
2023-05-20T12:02:09.174Z,59.19
2023-05-20T12:03:08.424Z,58.89
2023-05-20T12:04:08.714Z,58.89
2023-05-20T12:05:08.876Z,59.19
2023-05-20T12:06:09.073Z,58.89
2023-05-20T12:07:09.479Z,58.89
2023-05-20T12:08:09.613Z,58.47
2023-05-20T12:09:10.031Z,58.44
2023-05-20T12:10:10.201Z,58.14
2023-05-20T12:11:10.556Z,58.24
2023-05-20T12:12:10.755Z,58.37
2023-05-20T12:13:11.050Z,58.99
2023-05-20T12:14:11.388Z,59.92
2023-05-20T12:15:11.760Z,60.35
2023-05-20T12:16:12.154Z,61.48
2023-05-20T12:17:12.283Z,61.45
2023-05-20T12:18:12.661Z,61.92
2023-05-20T12:19:12.884Z,59.99
2023-05-20T12:20:13.157Z,60.10
2023-05-20T12:21:13.517Z,58.67
2023-05-20T12:22:13.798Z,58.89
2023-05-20T12:23:14.096Z,58.69
2023-05-20T12:24:14.454Z,58.67
2023-05-20T12:25:14.750Z,58.37
2023-05-20T12:26:15.062Z,58.17
2023-05-20T12:27:15.346Z,59.09
2023-05-20T12:28:15.686Z,58.49
2023-05-20T12:29:16.002Z,58.59
2023-05-20T12:30:16.341Z,58.72
2023-05-20T12:31:16.641Z,59.32
2023-05-20T12:32:16.985Z,58.92
2023-05-20T12:33:17.302Z,59.02
2023-05-20T12:34:17.639Z,59.65
2023-05-20T12:35:17.960Z,60.25
2023-05-20T12:36:18.286Z,60.25
2023-05-20T12:37:18.605Z,60.02
2023-05-20T12:38:18.882Z,59.72
2023-05-20T12:39:19.163Z,59.69
2023-05-20T12:40:19.483Z,58.72
2023-05-20T12:41:19.841Z,58.99
2023-05-20T12:42:20.122Z,58.80
2023-05-20T12:43:20.425Z,59.19
2023-05-20T12:44:20.706Z,58.80
2023-05-20T12:45:21.040Z,58.82
2023-05-20T12:46:21.369Z,59.52
2023-05-20T12:47:21.784Z,60.02
2023-05-20T12:48:22.031Z,60.10
2023-05-20T12:49:22.321Z,59.89
2023-05-20T12:50:22.638Z,59.49
2023-05-20T12:51:22.959Z,59.89
2023-05-20T12:52:23.288Z,59.92
2023-05-20T12:53:23.603Z,59.72
2023-05-20T12:54:23.906Z,59.85
2023-05-20T12:55:24.243Z,59.55
2023-05-20T12:56:24.417Z,59.95
2023-05-20T12:57:24.742Z,59.95
2023-05-20T12:58:25.034Z,60.12
2023-05-20T12:59:25.376Z,60.62